Terminal Aerodrome Forecast
Issued by NWS

Home | Current Version | Previous Version | Text Only | Print | Product List | Glossary On
Versions: 1 2 3 4 5 6 7 8 9 10 11 12 13 14 15 16 17 18 19 20 21 22 23 24 25 26 27
000
FTUS45 KGGW 121121 AAB
TAFGDV
TAF AMD
KGDV 121121Z 1211/1312 04009KT P6SM OVC015
     FM121900 09009KT P6SM OVC020
     FM130100 10012KT 6SM -SN OVC025
     FM130500 11011KT P6SM -SN OVC015
     FM130900 14010KT P6SM VCSH OVC040
      AMD LTD TO CLD VIS AND WIND=

USA.gov is the U.S. government's official web portal to all federal, state and local government web resources and services.